De Land, Illinois
Current Conditions -  °F | °C
As of 1:53 PM on Monday 24 Nov 2014 (Local Time) from KCMI Reporting Station
Overcast Overcast  
Wind Chill: 19°   Ceiling: 2200
Heat Index: 33°   Visibility: 10mi
Dew Point: 27°   Wind: 29mph
Humidity: 78%   Direction: 250°WSW
Pressure: 29.64"   Gusts: 37mph
Location:  40.12°N, 88.65°W
Report Text: KCMI 241953Z 25025G32KT 10SM OVC022 01/M03 A2964 RMK AO2 PK WND 24041/1908 SLP041 T00061028 $
Loading
Personal Weather Stations






























Interactive Weather Map New forecast layout! Learn more

10-Day Weather Forecast

Advertisements
Track Severe Weather on mobile